sensor_id;sensor_type;location;lat;lon;timestamp;P1;durP1;ratioP1;P2;durP2;ratioP2
41446;SDS011;27185;52.040;4.490;2022-11-20T00:02:07;18.15;;;11.18;;
41446;SDS011;27185;52.040;4.490;2022-11-20T00:04:53;18.15;;;10.93;;
41446;SDS011;27185;52.040;4.490;2022-11-20T00:07:39;21.88;;;11.63;;
41446;SDS011;27185;52.040;4.490;2022-11-20T00:10:24;21.38;;;11.35;;
41446;SDS011;27185;52.040;4.490;2022-11-20T00:13:10;20.38;;;11.20;;
41446;SDS011;27185;52.040;4.490;2022-11-20T00:15:56;21.15;;;10.85;;
41446;SDS011;27185;52.040;4.490;2022-11-20T00:18:43;20.30;;;10.90;;
41446;SDS011;27185;52.040;4.490;2022-11-20T00:21:29;21.98;;;11.02;;
41446;SDS011;27185;52.040;4.490;2022-11-20T00:24:15;18.27;;;9.70;;
41446;SDS011;27185;52.040;4.490;2022-11-20T00:27:01;18.65;;;10.65;;
41446;SDS011;27185;52.040;4.490;2022-11-20T00:29:47;17.77;;;10.70;;
41446;SDS011;27185;52.040;4.490;2022-11-20T00:32:33;18.58;;;11.30;;
41446;SDS011;27185;52.040;4.490;2022-11-20T00:35:18;18.88;;;10.80;;
41446;SDS011;27185;52.040;4.490;2022-11-20T00:38:04;18.17;;;9.88;;
41446;SDS011;27185;52.040;4.490;2022-11-20T00:40:54;19.65;;;11.23;;
41446;SDS011;27185;52.040;4.490;2022-11-20T00:43:41;19.13;;;10.95;;
41446;SDS011;27185;52.040;4.490;2022-11-20T00:46:27;19.73;;;11.40;;
41446;SDS011;27185;52.040;4.490;2022-11-20T00:49:13;17.25;;;10.05;;
41446;SDS011;27185;52.040;4.490;2022-11-20T00:51:59;20.92;;;11.60;;
41446;SDS011;27185;52.040;4.490;2022-11-20T00:54:46;22.23;;;11.50;;
41446;SDS011;27185;52.040;4.490;2022-11-20T00:57:31;25.27;;;11.45;;
41446;SDS011;27185;52.040;4.490;2022-11-20T01:00:17;18.27;;;11.13;;
41446;SDS011;27185;52.040;4.490;2022-11-20T01:03:03;19.33;;;10.35;;
41446;SDS011;27185;52.040;4.490;2022-11-20T01:05:48;19.92;;;11.18;;
41446;SDS011;27185;52.040;4.490;2022-11-20T01:08:35;19.33;;;11.32;;
41446;SDS011;27185;52.040;4.490;2022-11-20T01:11:22;24.42;;;12.23;;
41446;SDS011;27185;52.040;4.490;2022-11-20T01:14:14;20.58;;;11.48;;
41446;SDS011;27185;52.040;4.490;2022-11-20T01:17:02;18.98;;;10.82;;
41446;SDS011;27185;52.040;4.490;2022-11-20T01:19:50;20.63;;;10.40;;
41446;SDS011;27185;52.040;4.490;2022-11-20T01:22:36;16.08;;;10.93;;
41446;SDS011;27185;52.040;4.490;2022-11-20T01:25:21;18.58;;;10.85;;
41446;SDS011;27185;52.040;4.490;2022-11-20T01:28:07;22.25;;;11.63;;
41446;SDS011;27185;52.040;4.490;2022-11-20T01:30:53;21.17;;;11.02;;
41446;SDS011;27185;52.040;4.490;2022-11-20T01:33:38;21.52;;;11.38;;
41446;SDS011;27185;52.040;4.490;2022-11-20T01:36:27;20.42;;;10.43;;
41446;SDS011;27185;52.040;4.490;2022-11-20T01:42:01;18.27;;;10.07;;
41446;SDS011;27185;52.040;4.490;2022-11-20T01:48:30;19.52;;;10.93;;
41446;SDS011;27185;52.040;4.490;2022-11-20T01:54:18;21.42;;;11.63;;
41446;SDS011;27185;52.040;4.490;2022-11-20T01:57:07;17.70;;;10.80;;
41446;SDS011;27185;52.040;4.490;2022-11-20T02:00:00;19.25;;;10.63;;
41446;SDS011;27185;52.040;4.490;2022-11-20T02:02:52;20.10;;;11.13;;
41446;SDS011;27185;52.040;4.490;2022-11-20T02:08:32;21.35;;;11.40;;
41446;SDS011;27185;52.040;4.490;2022-11-20T02:11:18;20.42;;;11.55;;
41446;SDS011;27185;52.040;4.490;2022-11-20T02:14:04;17.75;;;10.25;;
41446;SDS011;27185;52.040;4.490;2022-11-20T02:16:50;23.13;;;12.43;;
41446;SDS011;27185;52.040;4.490;2022-11-20T02:19:36;17.70;;;10.63;;
41446;SDS011;27185;52.040;4.490;2022-11-20T02:22:25;19.58;;;11.50;;
41446;SDS011;27185;52.040;4.490;2022-11-20T02:25:15;19.83;;;10.60;;
41446;SDS011;27185;52.040;4.490;2022-11-20T02:28:01;20.77;;;10.90;;
41446;SDS011;27185;52.040;4.490;2022-11-20T02:30:47;18.58;;;10.82;;
41446;SDS011;27185;52.040;4.490;2022-11-20T02:33:33;18.90;;;10.77;;
41446;SDS011;27185;52.040;4.490;2022-11-20T02:36:19;20.58;;;11.25;;
41446;SDS011;27185;52.040;4.490;2022-11-20T02:39:04;19.75;;;10.75;;
41446;SDS011;27185;52.040;4.490;2022-11-20T02:41:52;18.80;;;10.73;;
41446;SDS011;27185;52.040;4.490;2022-11-20T02:44:38;16.80;;;10.38;;
41446;SDS011;27185;52.040;4.490;2022-11-20T02:47:24;20.00;;;10.93;;
41446;SDS011;27185;52.040;4.490;2022-11-20T02:50:10;18.33;;;10.82;;
41446;SDS011;27185;52.040;4.490;2022-11-20T02:52:55;20.30;;;11.63;;
41446;SDS011;27185;52.040;4.490;2022-11-20T02:55:41;21.35;;;10.15;;
41446;SDS011;27185;52.040;4.490;2022-11-20T02:58:26;20.00;;;11.38;;
41446;SDS011;27185;52.040;4.490;2022-11-20T03:01:12;21.02;;;11.88;;
41446;SDS011;27185;52.040;4.490;2022-11-20T03:03:58;20.10;;;10.43;;
41446;SDS011;27185;52.040;4.490;2022-11-20T03:06:43;18.23;;;10.20;;
41446;SDS011;27185;52.040;4.490;2022-11-20T03:09:29;20.83;;;11.20;;
41446;SDS011;27185;52.040;4.490;2022-11-20T03:12:15;19.15;;;10.07;;
41446;SDS011;27185;52.040;4.490;2022-11-20T03:15:01;17.67;;;10.65;;
41446;SDS011;27185;52.040;4.490;2022-11-20T03:17:47;19.45;;;11.05;;
41446;SDS011;27185;52.040;4.490;2022-11-20T03:20:33;22.58;;;12.20;;
41446;SDS011;27185;52.040;4.490;2022-11-20T03:23:19;18.95;;;11.00;;
41446;SDS011;27185;52.040;4.490;2022-11-20T03:26:15;18.05;;;10.15;;
41446;SDS011;27185;52.040;4.490;2022-11-20T03:29:05;19.15;;;11.43;;
41446;SDS011;27185;52.040;4.490;2022-11-20T03:31:52;16.58;;;9.93;;
41446;SDS011;27185;52.040;4.490;2022-11-20T03:34:38;19.00;;;10.82;;
41446;SDS011;27185;52.040;4.490;2022-11-20T03:37:23;21.40;;;12.30;;
41446;SDS011;27185;52.040;4.490;2022-11-20T03:40:09;18.52;;;12.15;;
41446;SDS011;27185;52.040;4.490;2022-11-20T03:42:55;17.38;;;11.25;;
41446;SDS011;27185;52.040;4.490;2022-11-20T03:45:41;23.73;;;11.82;;
41446;SDS011;27185;52.040;4.490;2022-11-20T03:48:27;19.85;;;11.27;;
41446;SDS011;27185;52.040;4.490;2022-11-20T03:51:17;20.75;;;12.25;;
41446;SDS011;27185;52.040;4.490;2022-11-20T03:54:04;20.23;;;11.60;;
41446;SDS011;27185;52.040;4.490;2022-11-20T03:59:36;17.77;;;10.10;;
41446;SDS011;27185;52.040;4.490;2022-11-20T04:02:22;21.58;;;10.38;;
41446;SDS011;27185;52.040;4.490;2022-11-20T04:05:08;19.98;;;11.30;;
41446;SDS011;27185;52.040;4.490;2022-11-20T04:07:54;21.15;;;11.75;;
41446;SDS011;27185;52.040;4.490;2022-11-20T04:10:39;21.48;;;12.10;;
41446;SDS011;27185;52.040;4.490;2022-11-20T04:13:25;21.30;;;12.25;;
41446;SDS011;27185;52.040;4.490;2022-11-20T04:16:12;20.75;;;11.63;;
41446;SDS011;27185;52.040;4.490;2022-11-20T04:18:58;20.70;;;11.48;;
41446;SDS011;27185;52.040;4.490;2022-11-20T04:21:45;23.00;;;11.65;;
41446;SDS011;27185;52.040;4.490;2022-11-20T04:24:30;22.58;;;11.93;;
41446;SDS011;27185;52.040;4.490;2022-11-20T04:27:16;22.45;;;12.23;;
41446;SDS011;27185;52.040;4.490;2022-11-20T04:30:02;21.05;;;12.35;;
41446;SDS011;27185;52.040;4.490;2022-11-20T04:32:48;20.17;;;11.40;;
41446;SDS011;27185;52.040;4.490;2022-11-20T04:35:34;19.80;;;11.50;;
41446;SDS011;27185;52.040;4.490;2022-11-20T04:38:20;25.48;;;11.73;;
41446;SDS011;27185;52.040;4.490;2022-11-20T04:41:08;20.48;;;12.00;;
41446;SDS011;27185;52.040;4.490;2022-11-20T04:44:01;26.15;;;12.98;;
41446;SDS011;27185;52.040;4.490;2022-11-20T04:46:48;24.75;;;12.77;;
41446;SDS011;27185;52.040;4.490;2022-11-20T04:49:37;21.92;;;12.68;;
41446;SDS011;27185;52.040;4.490;2022-11-20T04:52:23;21.60;;;12.70;;
41446;SDS011;27185;52.040;4.490;2022-11-20T04:55:09;22.55;;;12.30;;
41446;SDS011;27185;52.040;4.490;2022-11-20T04:57:55;18.80;;;10.77;;
41446;SDS011;27185;52.040;4.490;2022-11-20T05:00:41;22.50;;;12.52;;
41446;SDS011;27185;52.040;4.490;2022-11-20T05:03:27;24.48;;;12.80;;
41446;SDS011;27185;52.040;4.490;2022-11-20T05:06:14;23.63;;;12.23;;
41446;SDS011;27185;52.040;4.490;2022-11-20T05:09:04;23.13;;;12.70;;
41446;SDS011;27185;52.040;4.490;2022-11-20T05:11:50;23.63;;;11.77;;
41446;SDS011;27185;52.040;4.490;2022-11-20T05:14:37;21.90;;;12.48;;
41446;SDS011;27185;52.040;4.490;2022-11-20T05:17:23;22.15;;;11.73;;
41446;SDS011;27185;52.040;4.490;2022-11-20T05:20:08;20.70;;;12.07;;
41446;SDS011;27185;52.040;4.490;2022-11-20T05:22:57;21.10;;;12.25;;
41446;SDS011;27185;52.040;4.490;2022-11-20T05:25:43;23.63;;;12.05;;
41446;SDS011;27185;52.040;4.490;2022-11-20T05:28:29;24.38;;;11.75;;
41446;SDS011;27185;52.040;4.490;2022-11-20T05:31:16;23.45;;;12.43;;
41446;SDS011;27185;52.040;4.490;2022-11-20T05:34:06;22.48;;;12.80;;
41446;SDS011;27185;52.040;4.490;2022-11-20T05:36:52;24.33;;;12.65;;
41446;SDS011;27185;52.040;4.490;2022-11-20T05:39:38;20.33;;;12.15;;
41446;SDS011;27185;52.040;4.490;2022-11-20T05:42:23;24.42;;;12.75;;
41446;SDS011;27185;52.040;4.490;2022-11-20T05:45:15;24.58;;;11.93;;
41446;SDS011;27185;52.040;4.490;2022-11-20T05:48:00;20.80;;;12.13;;
41446;SDS011;27185;52.040;4.490;2022-11-20T05:50:47;20.05;;;12.45;;
41446;SDS011;27185;52.040;4.490;2022-11-20T05:53:33;25.70;;;11.52;;
41446;SDS011;27185;52.040;4.490;2022-11-20T05:56:20;24.92;;;12.10;;
41446;SDS011;27185;52.040;4.490;2022-11-20T05:59:06;23.17;;;11.90;;
41446;SDS011;27185;52.040;4.490;2022-11-20T06:01:52;23.88;;;13.27;;
41446;SDS011;27185;52.040;4.490;2022-11-20T06:04:37;25.42;;;14.40;;
41446;SDS011;27185;52.040;4.490;2022-11-20T06:07:23;28.65;;;14.35;;
41446;SDS011;27185;52.040;4.490;2022-11-20T06:10:09;27.02;;;14.82;;
41446;SDS011;27185;52.040;4.490;2022-11-20T06:12:57;26.92;;;14.63;;
41446;SDS011;27185;52.040;4.490;2022-11-20T06:15:48;30.05;;;15.00;;
41446;SDS011;27185;52.040;4.490;2022-11-20T06:18:34;25.23;;;14.30;;
41446;SDS011;27185;52.040;4.490;2022-11-20T06:21:20;26.70;;;14.10;;
41446;SDS011;27185;52.040;4.490;2022-11-20T06:24:09;24.80;;;15.10;;
41446;SDS011;27185;52.040;4.490;2022-11-20T06:26:55;27.35;;;13.80;;
41446;SDS011;27185;52.040;4.490;2022-11-20T06:29:40;25.67;;;14.55;;
41446;SDS011;27185;52.040;4.490;2022-11-20T06:32:26;23.80;;;13.13;;
41446;SDS011;27185;52.040;4.490;2022-11-20T06:35:11;24.60;;;13.30;;
41446;SDS011;27185;52.040;4.490;2022-11-20T06:37:57;27.17;;;14.48;;
41446;SDS011;27185;52.040;4.490;2022-11-20T06:40:43;30.48;;;16.15;;
41446;SDS011;27185;52.040;4.490;2022-11-20T06:43:28;27.15;;;14.00;;
41446;SDS011;27185;52.040;4.490;2022-11-20T06:46:15;26.42;;;14.90;;
41446;SDS011;27185;52.040;4.490;2022-11-20T06:49:02;28.17;;;14.88;;
41446;SDS011;27185;52.040;4.490;2022-11-20T06:51:48;26.52;;;14.13;;
41446;SDS011;27185;52.040;4.490;2022-11-20T06:54:33;21.38;;;14.00;;
41446;SDS011;27185;52.040;4.490;2022-11-20T06:57:19;26.13;;;15.48;;
41446;SDS011;27185;52.040;4.490;2022-11-20T07:00:04;26.75;;;15.45;;
41446;SDS011;27185;52.040;4.490;2022-11-20T07:02:51;29.45;;;16.52;;
41446;SDS011;27185;52.040;4.490;2022-11-20T07:05:37;23.75;;;14.63;;
41446;SDS011;27185;52.040;4.490;2022-11-20T07:08:23;22.30;;;14.05;;
41446;SDS011;27185;52.040;4.490;2022-11-20T07:11:10;25.83;;;14.18;;
41446;SDS011;27185;52.040;4.490;2022-11-20T07:13:57;20.98;;;13.48;;
41446;SDS011;27185;52.040;4.490;2022-11-20T07:16:42;24.13;;;14.10;;
41446;SDS011;27185;52.040;4.490;2022-11-20T07:19:28;23.50;;;13.70;;
41446;SDS011;27185;52.040;4.490;2022-11-20T07:22:13;24.98;;;14.18;;
41446;SDS011;27185;52.040;4.490;2022-11-20T07:24:59;24.63;;;14.35;;
41446;SDS011;27185;52.040;4.490;2022-11-20T07:27:44;21.88;;;13.90;;
41446;SDS011;27185;52.040;4.490;2022-11-20T07:30:30;22.42;;;12.65;;
41446;SDS011;27185;52.040;4.490;2022-11-20T07:33:16;27.27;;;16.17;;
41446;SDS011;27185;52.040;4.490;2022-11-20T07:36:01;31.15;;;16.77;;
41446;SDS011;27185;52.040;4.490;2022-11-20T07:38:47;25.92;;;15.48;;
41446;SDS011;27185;52.040;4.490;2022-11-20T07:41:33;28.27;;;16.42;;
41446;SDS011;27185;52.040;4.490;2022-11-20T07:44:18;27.48;;;15.60;;
41446;SDS011;27185;52.040;4.490;2022-11-20T07:47:04;23.92;;;14.68;;
41446;SDS011;27185;52.040;4.490;2022-11-20T07:49:49;26.20;;;15.35;;
41446;SDS011;27185;52.040;4.490;2022-11-20T07:52:35;28.27;;;16.85;;
41446;SDS011;27185;52.040;4.490;2022-11-20T07:55:20;29.17;;;15.32;;
41446;SDS011;27185;52.040;4.490;2022-11-20T07:58:06;27.02;;;15.50;;
41446;SDS011;27185;52.040;4.490;2022-11-20T08:00:51;27.00;;;17.05;;
41446;SDS011;27185;52.040;4.490;2022-11-20T08:03:37;28.67;;;16.45;;
41446;SDS011;27185;52.040;4.490;2022-11-20T08:06:23;28.67;;;17.38;;
41446;SDS011;27185;52.040;4.490;2022-11-20T08:09:09;27.50;;;15.68;;
41446;SDS011;27185;52.040;4.490;2022-11-20T08:11:55;23.63;;;14.98;;
41446;SDS011;27185;52.040;4.490;2022-11-20T08:14:59;27.38;;;14.68;;
41446;SDS011;27185;52.040;4.490;2022-11-20T08:17:44;24.23;;;15.63;;
41446;SDS011;27185;52.040;4.490;2022-11-20T08:20:30;25.42;;;15.57;;
41446;SDS011;27185;52.040;4.490;2022-11-20T08:23:16;24.50;;;15.07;;
41446;SDS011;27185;52.040;4.490;2022-11-20T08:26:01;25.02;;;15.90;;
41446;SDS011;27185;52.040;4.490;2022-11-20T08:28:47;23.92;;;15.50;;
41446;SDS011;27185;52.040;4.490;2022-11-20T08:31:32;26.40;;;15.95;;
41446;SDS011;27185;52.040;4.490;2022-11-20T08:34:18;27.80;;;16.05;;
41446;SDS011;27185;52.040;4.490;2022-11-20T08:37:03;27.00;;;16.63;;
41446;SDS011;27185;52.040;4.490;2022-11-20T08:39:49;27.45;;;16.20;;
41446;SDS011;27185;52.040;4.490;2022-11-20T08:42:34;29.55;;;17.70;;
41446;SDS011;27185;52.040;4.490;2022-11-20T08:45:20;24.73;;;15.23;;
41446;SDS011;27185;52.040;4.490;2022-11-20T08:48:05;33.22;;;19.15;;
41446;SDS011;27185;52.040;4.490;2022-11-20T08:50:51;33.30;;;19.42;;
41446;SDS011;27185;52.040;4.490;2022-11-20T08:53:37;30.05;;;18.67;;
41446;SDS011;27185;52.040;4.490;2022-11-20T08:56:23;29.88;;;17.35;;
41446;SDS011;27185;52.040;4.490;2022-11-20T08:59:09;32.13;;;17.65;;
41446;SDS011;27185;52.040;4.490;2022-11-20T09:01:54;29.67;;;15.75;;
41446;SDS011;27185;52.040;4.490;2022-11-20T09:04:40;25.67;;;15.70;;
41446;SDS011;27185;52.040;4.490;2022-11-20T09:07:26;29.17;;;17.30;;
41446;SDS011;27185;52.040;4.490;2022-11-20T09:10:11;33.90;;;19.70;;
41446;SDS011;27185;52.040;4.490;2022-11-20T09:12:57;29.48;;;17.30;;
41446;SDS011;27185;52.040;4.490;2022-11-20T09:15:43;30.70;;;18.38;;
41446;SDS011;27185;52.040;4.490;2022-11-20T09:18:28;27.23;;;18.23;;
41446;SDS011;27185;52.040;4.490;2022-11-20T09:21:16;27.60;;;18.02;;
41446;SDS011;27185;52.040;4.490;2022-11-20T09:24:02;31.17;;;18.90;;
41446;SDS011;27185;52.040;4.490;2022-11-20T09:26:47;27.85;;;16.95;;
41446;SDS011;27185;52.040;4.490;2022-11-20T09:29:33;32.08;;;16.88;;
41446;SDS011;27185;52.040;4.490;2022-11-20T09:32:18;27.83;;;16.83;;
41446;SDS011;27185;52.040;4.490;2022-11-20T09:35:04;27.20;;;17.42;;
41446;SDS011;27185;52.040;4.490;2022-11-20T09:37:50;30.15;;;18.00;;
41446;SDS011;27185;52.040;4.490;2022-11-20T09:40:37;31.85;;;18.60;;
41446;SDS011;27185;52.040;4.490;2022-11-20T09:46:48;27.05;;;17.27;;
41446;SDS011;27185;52.040;4.490;2022-11-20T09:56:10;29.83;;;18.23;;
41446;SDS011;27185;52.040;4.490;2022-11-20T09:58:59;31.20;;;18.83;;
41446;SDS011;27185;52.040;4.490;2022-11-20T10:01:49;30.52;;;18.63;;
41446;SDS011;27185;52.040;4.490;2022-11-20T10:04:35;33.05;;;19.55;;
41446;SDS011;27185;52.040;4.490;2022-11-20T10:07:37;33.25;;;19.20;;
41446;SDS011;27185;52.040;4.490;2022-11-20T10:13:40;29.92;;;18.00;;
41446;SDS011;27185;52.040;4.490;2022-11-20T10:16:40;31.65;;;20.75;;
41446;SDS011;27185;52.040;4.490;2022-11-20T10:22:40;31.90;;;19.63;;
41446;SDS011;27185;52.040;4.490;2022-11-20T10:25:47;30.60;;;19.65;;
41446;SDS011;27185;52.040;4.490;2022-11-20T10:28:52;37.45;;;21.90;;
41446;SDS011;27185;52.040;4.490;2022-11-20T10:31:44;32.53;;;20.48;;
41446;SDS011;27185;52.040;4.490;2022-11-20T10:37:37;34.90;;;20.52;;
41446;SDS011;27185;52.040;4.490;2022-11-20T10:40:28;31.73;;;20.75;;
41446;SDS011;27185;52.040;4.490;2022-11-20T10:43:33;26.30;;;18.17;;
41446;SDS011;27185;52.040;4.490;2022-11-20T10:46:20;34.10;;;22.38;;
41446;SDS011;27185;52.040;4.490;2022-11-20T10:49:14;37.20;;;22.42;;
41446;SDS011;27185;52.040;4.490;2022-11-20T10:52:04;30.67;;;19.38;;
41446;SDS011;27185;52.040;4.490;2022-11-20T10:58:22;31.10;;;18.45;;
41446;SDS011;27185;52.040;4.490;2022-11-20T11:01:23;27.98;;;18.30;;
41446;SDS011;27185;52.040;4.490;2022-11-20T11:07:23;28.15;;;17.58;;
41446;SDS011;27185;52.040;4.490;2022-11-20T11:10:39;32.53;;;19.17;;
41446;SDS011;27185;52.040;4.490;2022-11-20T11:13:36;32.97;;;20.38;;
41446;SDS011;27185;52.040;4.490;2022-11-20T11:16:23;33.25;;;19.40;;
41446;SDS011;27185;52.040;4.490;2022-11-20T11:19:14;33.63;;;19.90;;
41446;SDS011;27185;52.040;4.490;2022-11-20T11:21:59;27.48;;;18.50;;
41446;SDS011;27185;52.040;4.490;2022-11-20T11:24:52;40.53;;;23.95;;
41446;SDS011;27185;52.040;4.490;2022-11-20T11:27:45;37.03;;;23.63;;
41446;SDS011;27185;52.040;4.490;2022-11-20T11:30:42;32.50;;;20.13;;
41446;SDS011;27185;52.040;4.490;2022-11-20T11:33:30;34.67;;;21.42;;
41446;SDS011;27185;52.040;4.490;2022-11-20T11:36:21;38.85;;;23.45;;
41446;SDS011;27185;52.040;4.490;2022-11-20T11:39:16;48.65;;;26.05;;
41446;SDS011;27185;52.040;4.490;2022-11-20T11:42:04;43.97;;;27.13;;
41446;SDS011;27185;52.040;4.490;2022-11-20T11:44:50;38.28;;;24.02;;
41446;SDS011;27185;52.040;4.490;2022-11-20T11:47:54;35.90;;;22.77;;
41446;SDS011;27185;52.040;4.490;2022-11-20T11:50:47;44.55;;;27.48;;
41446;SDS011;27185;52.040;4.490;2022-11-20T11:53:34;38.97;;;22.83;;
41446;SDS011;27185;52.040;4.490;2022-11-20T11:56:24;44.40;;;26.08;;
41446;SDS011;27185;52.040;4.490;2022-11-20T11:59:12;40.28;;;23.92;;
41446;SDS011;27185;52.040;4.490;2022-11-20T12:02:15;35.55;;;22.77;;
41446;SDS011;27185;52.040;4.490;2022-11-20T12:05:30;36.40;;;21.85;;
41446;SDS011;27185;52.040;4.490;2022-11-20T12:08:32;34.35;;;20.55;;
41446;SDS011;27185;52.040;4.490;2022-11-20T12:11:37;41.45;;;22.67;;
41446;SDS011;27185;52.040;4.490;2022-11-20T12:14:38;35.25;;;20.50;;
41446;SDS011;27185;52.040;4.490;2022-11-20T12:17:27;36.97;;;23.00;;
41446;SDS011;27185;52.040;4.490;2022-11-20T12:20:13;36.10;;;20.92;;
41446;SDS011;27185;52.040;4.490;2022-11-20T12:23:06;34.40;;;20.80;;
41446;SDS011;27185;52.040;4.490;2022-11-20T12:26:00;35.63;;;20.05;;
41446;SDS011;27185;52.040;4.490;2022-11-20T12:32:01;35.92;;;20.67;;
41446;SDS011;27185;52.040;4.490;2022-11-20T12:38:33;40.88;;;23.10;;
41446;SDS011;27185;52.040;4.490;2022-11-20T12:45:00;46.78;;;25.17;;
41446;SDS011;27185;52.040;4.490;2022-11-20T12:48:06;47.35;;;26.92;;
41446;SDS011;27185;52.040;4.490;2022-11-20T13:00:34;44.72;;;25.10;;
41446;SDS011;27185;52.040;4.490;2022-11-20T13:03:26;46.85;;;25.50;;
41446;SDS011;27185;52.040;4.490;2022-11-20T13:06:21;48.45;;;26.35;;
41446;SDS011;27185;52.040;4.490;2022-11-20T13:09:08;41.97;;;22.55;;
41446;SDS011;27185;52.040;4.490;2022-11-20T13:12:12;47.80;;;26.17;;
41446;SDS011;27185;52.040;4.490;2022-11-20T13:15:02;50.13;;;27.58;;
41446;SDS011;27185;52.040;4.490;2022-11-20T13:18:10;46.50;;;26.33;;
41446;SDS011;27185;52.040;4.490;2022-11-20T13:20:57;46.05;;;25.58;;
41446;SDS011;27185;52.040;4.490;2022-11-20T13:23:43;44.53;;;25.05;;
41446;SDS011;27185;52.040;4.490;2022-11-20T13:26:29;57.33;;;29.77;;
41446;SDS011;27185;52.040;4.490;2022-11-20T13:29:18;52.25;;;28.30;;
41446;SDS011;27185;52.040;4.490;2022-11-20T13:32:13;47.08;;;27.08;;
41446;SDS011;27185;52.040;4.490;2022-11-20T13:35:02;50.22;;;28.60;;
41446;SDS011;27185;52.040;4.490;2022-11-20T13:37:58;52.22;;;29.42;;
41446;SDS011;27185;52.040;4.490;2022-11-20T13:40:58;48.55;;;27.50;;
41446;SDS011;27185;52.040;4.490;2022-11-20T13:44:25;54.72;;;30.73;;
41446;SDS011;27185;52.040;4.490;2022-11-20T13:47:24;55.40;;;28.70;;
41446;SDS011;27185;52.040;4.490;2022-11-20T13:50:13;50.20;;;27.83;;
41446;SDS011;27185;52.040;4.490;2022-11-20T13:53:17;49.72;;;26.98;;
41446;SDS011;27185;52.040;4.490;2022-11-20T13:56:23;48.92;;;26.73;;
41446;SDS011;27185;52.040;4.490;2022-11-20T14:02:13;52.22;;;26.80;;
41446;SDS011;27185;52.040;4.490;2022-11-20T14:05:00;61.40;;;32.35;;
41446;SDS011;27185;52.040;4.490;2022-11-20T14:07:46;63.58;;;31.25;;
41446;SDS011;27185;52.040;4.490;2022-11-20T14:10:32;53.13;;;27.15;;
41446;SDS011;27185;52.040;4.490;2022-11-20T14:13:19;55.83;;;29.15;;
41446;SDS011;27185;52.040;4.490;2022-11-20T14:16:05;47.78;;;25.55;;
41446;SDS011;27185;52.040;4.490;2022-11-20T14:18:51;58.17;;;29.60;;
41446;SDS011;27185;52.040;4.490;2022-11-20T14:21:37;55.28;;;27.75;;
41446;SDS011;27185;52.040;4.490;2022-11-20T14:24:24;51.22;;;27.23;;
41446;SDS011;27185;52.040;4.490;2022-11-20T14:27:14;58.50;;;29.50;;
41446;SDS011;27185;52.040;4.490;2022-11-20T14:30:04;66.20;;;32.75;;
41446;SDS011;27185;52.040;4.490;2022-11-20T14:32:53;70.55;;;32.08;;
41446;SDS011;27185;52.040;4.490;2022-11-20T14:35:44;58.53;;;29.67;;
41446;SDS011;27185;52.040;4.490;2022-11-20T14:38:35;63.80;;;31.40;;
41446;SDS011;27185;52.040;4.490;2022-11-20T14:41:22;61.78;;;31.33;;
41446;SDS011;27185;52.040;4.490;2022-11-20T14:44:08;67.68;;;30.70;;
41446;SDS011;27185;52.040;4.490;2022-11-20T14:46:55;65.55;;;32.58;;
41446;SDS011;27185;52.040;4.490;2022-11-20T14:49:41;59.92;;;29.88;;
41446;SDS011;27185;52.040;4.490;2022-11-20T14:52:28;56.10;;;29.27;;
41446;SDS011;27185;52.040;4.490;2022-11-20T14:55:24;74.13;;;35.90;;
41446;SDS011;27185;52.040;4.490;2022-11-20T14:58:21;60.88;;;28.92;;
41446;SDS011;27185;52.040;4.490;2022-11-20T15:01:11;60.38;;;30.23;;
41446;SDS011;27185;52.040;4.490;2022-11-20T15:04:08;60.17;;;30.08;;
41446;SDS011;27185;52.040;4.490;2022-11-20T15:06:56;61.53;;;30.33;;
41446;SDS011;27185;52.040;4.490;2022-11-20T15:09:43;62.17;;;29.42;;
41446;SDS011;27185;52.040;4.490;2022-11-20T15:12:29;55.97;;;28.45;;
41446;SDS011;27185;52.040;4.490;2022-11-20T15:15:17;58.55;;;28.85;;
41446;SDS011;27185;52.040;4.490;2022-11-20T15:18:15;55.88;;;29.15;;
41446;SDS011;27185;52.040;4.490;2022-11-20T15:21:05;66.40;;;35.10;;
41446;SDS011;27185;52.040;4.490;2022-11-20T15:23:57;63.35;;;31.00;;
41446;SDS011;27185;52.040;4.490;2022-11-20T15:26:44;55.25;;;30.48;;
41446;SDS011;27185;52.040;4.490;2022-11-20T15:29:30;56.33;;;28.73;;
41446;SDS011;27185;52.040;4.490;2022-11-20T15:32:15;58.97;;;30.60;;
41446;SDS011;27185;52.040;4.490;2022-11-20T15:35:01;57.45;;;30.85;;
41446;SDS011;27185;52.040;4.490;2022-11-20T15:37:46;56.70;;;28.88;;
41446;SDS011;27185;52.040;4.490;2022-11-20T15:40:32;49.75;;;27.63;;
41446;SDS011;27185;52.040;4.490;2022-11-20T15:43:17;57.30;;;30.30;;
41446;SDS011;27185;52.040;4.490;2022-11-20T15:46:04;50.47;;;27.63;;
41446;SDS011;27185;52.040;4.490;2022-11-20T15:48:59;52.90;;;29.30;;
41446;SDS011;27185;52.040;4.490;2022-11-20T15:51:47;54.22;;;30.25;;
41446;SDS011;27185;52.040;4.490;2022-11-20T15:54:33;54.78;;;29.60;;
41446;SDS011;27185;52.040;4.490;2022-11-20T15:57:19;53.63;;;28.65;;
41446;SDS011;27185;52.040;4.490;2022-11-20T16:00:04;53.97;;;29.80;;
41446;SDS011;27185;52.040;4.490;2022-11-20T16:02:51;44.40;;;25.58;;
41446;SDS011;27185;52.040;4.490;2022-11-20T16:05:36;46.45;;;26.42;;
41446;SDS011;27185;52.040;4.490;2022-11-20T16:08:22;46.83;;;25.67;;
41446;SDS011;27185;52.040;4.490;2022-11-20T16:11:10;36.60;;;21.90;;
41446;SDS011;27185;52.040;4.490;2022-11-20T16:13:57;44.53;;;24.58;;
41446;SDS011;27185;52.040;4.490;2022-11-20T16:17:02;44.10;;;24.52;;
41446;SDS011;27185;52.040;4.490;2022-11-20T16:19:48;52.70;;;27.33;;
41446;SDS011;27185;52.040;4.490;2022-11-20T16:22:33;44.20;;;25.20;;
41446;SDS011;27185;52.040;4.490;2022-11-20T16:25:19;44.00;;;25.23;;
41446;SDS011;27185;52.040;4.490;2022-11-20T16:28:04;41.42;;;24.13;;
41446;SDS011;27185;52.040;4.490;2022-11-20T16:30:50;41.25;;;23.13;;
41446;SDS011;27185;52.040;4.490;2022-11-20T16:33:36;46.30;;;25.85;;
41446;SDS011;27185;52.040;4.490;2022-11-20T16:36:22;43.80;;;25.90;;
41446;SDS011;27185;52.040;4.490;2022-11-20T16:39:10;47.08;;;26.35;;
41446;SDS011;27185;52.040;4.490;2022-11-20T16:41:56;42.90;;;25.75;;
41446;SDS011;27185;52.040;4.490;2022-11-20T16:44:41;48.05;;;26.95;;
41446;SDS011;27185;52.040;4.490;2022-11-20T16:47:33;42.50;;;24.67;;
41446;SDS011;27185;52.040;4.490;2022-11-20T16:50:19;43.65;;;22.77;;
41446;SDS011;27185;52.040;4.490;2022-11-20T16:53:05;41.78;;;22.20;;
41446;SDS011;27185;52.040;4.490;2022-11-20T16:55:51;41.53;;;23.05;;
41446;SDS011;27185;52.040;4.490;2022-11-20T16:58:36;37.67;;;22.98;;
41446;SDS011;27185;52.040;4.490;2022-11-20T17:01:22;38.60;;;21.15;;
41446;SDS011;27185;52.040;4.490;2022-11-20T17:04:09;45.35;;;23.77;;
41446;SDS011;27185;52.040;4.490;2022-11-20T17:06:54;37.83;;;22.38;;
41446;SDS011;27185;52.040;4.490;2022-11-20T17:09:40;44.63;;;26.05;;
41446;SDS011;27185;52.040;4.490;2022-11-20T17:12:25;43.40;;;23.02;;
41446;SDS011;27185;52.040;4.490;2022-11-20T17:15:11;38.22;;;22.38;;
41446;SDS011;27185;52.040;4.490;2022-11-20T17:17:56;32.28;;;19.65;;
41446;SDS011;27185;52.040;4.490;2022-11-20T17:20:42;31.30;;;19.17;;
41446;SDS011;27185;52.040;4.490;2022-11-20T17:23:37;30.90;;;18.75;;
41446;SDS011;27185;52.040;4.490;2022-11-20T17:26:24;32.22;;;19.00;;
41446;SDS011;27185;52.040;4.490;2022-11-20T17:29:11;31.92;;;20.35;;